Airfield :
LOGIN :

Register | Disclaimer

   EN    FR    IT 

 










Legend :    VFR   Marginal VFR   IFR   Intensive IFR   Very Intensive IFR
Visi :
Ceiling :
>= 8 km
>= 3000ft
5 to 8 km
1000 to 3000 ft
1500m to 5 km
500 to 1000 ft
800 to 1500m
200 to 500 ft
< 800m
< 200 ft
Symbols :   Thunderstorms  Fog  Heavy snow  Heavy precipitations  Wind > 20 kt
SIGMETs :     Misc.  Thunderstorms  Icing  Turbulence  Mountain Waves  Volcanic Ashes






- Airport Elevation : 34 ft
- IATA code : BLK


EGNH - Blackpool

CURRENT METAR :
  • 171150Z 34017KT 310V010 9999 FEW013 SCT026 09/02 Q1017

EXPIRED METARs :
  • 171120Z 34017KT 9999 FEW013 SCT028 09/02 Q1017
  • 171050Z 34018KT 9999 FEW013 SCT026 09/02 Q1016
  • 171020Z 34018KT 9999 FEW013 SCT026 09/02 Q1016
  • 170950Z 33017KT 9999 FEW013 SCT025 09/02 Q1017
  • 170920Z 34017KT 9999 FEW015 SCT028 08/02 Q1016
  • 170850Z 34019KT 9999 FEW015 SCT028 08/01 Q1017
  • 170820Z 35015G26KT 9999 FEW015 SCT025 08/02 Q1017
  • 170750Z 34016KT 9999 FEW015 SCT025 08/01 Q1017
  • 170720Z 34018G28KT 9999 FEW010 SCT025 07/01 Q1017

TAF TAF EGNH
Valid from the 17 at 12:00 until the 17 at 21:00 UTC


171101Z 1712/1721 34015KT 9999 SCT025
TEMPO 1712/1717 35018G28KT
PROB30
TEMPO 1712/1717 7000 SHRA
BECMG 1716/1719 02005KT
ATIS : +44 1253 343 434 (x8315)



MET'MAP, your aeronautical weather chart ! - Copyright ORBIFLY December 2007 - Disclaimer

ORBIFLY MET'MAP TEAM :

Programming & Development : Alexandra Zaïnal
Original concept : Baudouin d'Aumeries
Technical & hardware support : Manuel Goepfert
Assistance : Marc-Olivier Méhu




SOURCES & CREDITS :

   NOAA